createdAt,value
2018-04-16T00:02:11.011Z,100721.78
2018-04-16T00:04:39.145Z,100727.06
2018-04-16T00:07:07.275Z,100720.72
2018-04-16T00:09:35.401Z,100726.80
2018-04-16T00:12:03.555Z,100722.00
2018-04-16T00:14:31.678Z,100723.45
2018-04-16T00:16:59.775Z,100723.88
2018-04-16T00:19:27.939Z,100720.48
2018-04-16T00:21:56.080Z,100726.19
2018-04-16T00:24:24.257Z,100721.84
2018-04-16T00:26:52.416Z,100724.39
2018-04-16T00:29:20.535Z,100726.94
2018-04-16T00:31:54.494Z,100723.03
2018-04-16T00:34:28.249Z,100726.89
2018-04-16T00:37:02.345Z,100728.32
2018-04-16T00:39:35.945Z,100729.93
2018-04-16T00:42:09.679Z,100731.23
2018-04-16T00:44:43.334Z,100737.93
2018-04-16T00:47:17.054Z,100734.82
2018-04-16T00:49:50.868Z,100731.89
2018-04-16T00:52:24.567Z,100733.94
2018-04-16T00:54:58.399Z,100741.50
2018-04-16T00:57:32.088Z,100741.83
2018-04-16T01:00:05.878Z,100742.80
2018-04-16T01:02:39.516Z,100749.33
2018-04-16T01:05:13.259Z,100752.06
2018-04-16T01:07:46.940Z,100753.50
2018-04-16T01:10:20.602Z,100751.58
2018-04-16T01:12:54.391Z,100755.91
2018-04-16T01:15:28.104Z,100759.12
2018-04-16T01:18:01.776Z,100760.64
2018-04-16T01:20:35.599Z,100760.00
2018-04-16T01:23:09.427Z,100760.91
2018-04-16T01:25:43.135Z,100762.28
2018-04-16T01:28:16.702Z,100760.75
2018-04-16T01:30:50.501Z,100768.91
2018-04-16T01:33:24.434Z,100765.95
2018-04-16T01:35:57.939Z,100768.49
2018-04-16T01:38:31.631Z,100763.24
2018-04-16T01:41:05.425Z,100764.35
2018-04-16T01:43:39.274Z,100769.30
2018-04-16T01:46:12.951Z,100772.14
2018-04-16T01:51:54.860Z,100770.78
2018-04-16T01:54:28.664Z,100771.92
2018-04-16T01:57:02.327Z,100771.68
2018-04-16T01:59:36.157Z,100770.91
2018-04-16T02:02:09.837Z,100767.53
2018-04-16T02:04:43.581Z,100771.68
2018-04-16T02:07:17.378Z,100766.89
2018-04-16T02:12:55.369Z,100781.91
2018-04-16T02:15:29.215Z,100783.09
2018-04-16T02:18:02.920Z,100787.71
2018-04-16T02:20:36.743Z,100792.66
2018-04-16T02:23:10.412Z,100793.92
2018-04-16T02:25:44.141Z,100782.87
2018-04-16T02:28:17.805Z,100782.71
2018-04-16T02:30:51.845Z,100783.89
2018-04-16T02:33:25.464Z,100783.08
2018-04-16T02:35:59.220Z,100782.67
2018-04-16T02:38:32.819Z,100781.48
2018-04-16T02:41:06.487Z,100781.56
2018-04-16T02:46:43.345Z,100781.86
2018-04-16T02:49:17.183Z,100785.96
2018-04-16T02:51:50.887Z,100785.23
2018-04-16T02:54:24.554Z,100786.67
2018-04-16T02:56:58.477Z,100786.16
2018-04-16T02:59:32.249Z,100784.69
2018-04-16T03:02:06.049Z,100787.88
2018-04-16T03:04:39.843Z,100788.80
2018-04-16T03:07:13.510Z,100779.61
2018-04-16T03:09:47.187Z,100782.58
2018-04-16T03:12:20.925Z,100778.98
2018-04-16T03:14:54.735Z,100787.47
2018-04-16T03:17:28.518Z,100786.59
2018-04-16T03:20:02.204Z,100790.05
2018-04-16T03:25:41.288Z,100785.28
2018-04-16T03:28:14.918Z,100791.33
2018-04-16T03:30:48.750Z,100795.22
2018-04-16T03:33:22.595Z,100791.79
2018-04-16T03:35:56.208Z,100802.55
2018-04-16T03:38:29.942Z,100798.55
2018-04-16T03:41:03.571Z,100811.20
2018-04-16T03:43:37.355Z,100810.77
2018-04-16T03:46:11.129Z,100808.59
2018-04-16T03:48:44.668Z,100814.05
2018-04-16T03:51:14.729Z,100819.63
2018-04-16T03:53:47.664Z,100815.31
2018-04-16T03:56:15.785Z,100825.88
2018-04-16T03:58:43.905Z,100821.62
2018-04-16T04:01:12.033Z,100826.26
2018-04-16T04:03:40.135Z,100838.62
2018-04-16T04:06:08.256Z,100846.95
2018-04-16T04:08:36.378Z,100844.75
2018-04-16T04:11:04.494Z,100839.47
2018-04-16T04:13:32.637Z,100846.44
2018-04-16T04:16:00.776Z,100847.64
2018-04-16T04:18:28.906Z,100847.04
2018-04-16T04:20:57.022Z,100849.58
2018-04-16T04:23:36.898Z,100857.91
2018-04-16T04:26:16.847Z,100849.04
2018-04-16T04:28:56.848Z,100852.08
2018-04-16T04:31:24.986Z,100860.06
2018-04-16T04:33:53.120Z,100860.83
2018-04-16T04:36:21.245Z,100861.08
2018-04-16T04:38:49.394Z,100867.25
2018-04-16T04:41:17.502Z,100861.67
2018-04-16T04:43:45.633Z,100864.90
2018-04-16T04:46:13.891Z,100862.03
2018-04-16T04:48:42.012Z,100857.54
2018-04-16T04:51:10.151Z,100863.38
2018-04-16T04:53:38.273Z,100863.72
2018-04-16T04:56:06.407Z,100864.98
2018-04-16T04:58:34.538Z,100868.29
2018-04-16T05:01:02.666Z,100870.27
2018-04-16T05:03:30.797Z,100879.31
2018-04-16T05:05:58.914Z,100870.70
2018-04-16T05:08:27.040Z,100888.34
2018-04-16T05:10:55.181Z,100892.84
2018-04-16T05:13:23.320Z,100882.83
2018-04-16T05:15:51.459Z,100891.59
2018-04-16T05:18:19.573Z,100893.50
2018-04-16T05:20:47.707Z,100892.91
2018-04-16T05:23:15.848Z,100898.56
2018-04-16T05:25:47.137Z,100899.13
2018-04-16T05:28:15.267Z,100900.19
2018-04-16T05:30:43.417Z,100906.70
2018-04-16T05:33:11.580Z,100911.55
2018-04-16T05:35:39.707Z,100910.59
2018-04-16T05:38:07.834Z,100920.31
2018-04-16T05:40:35.974Z,100923.45
2018-04-16T05:43:04.120Z,100932.98
2018-04-16T05:45:32.245Z,100932.86
2018-04-16T05:48:00.383Z,100936.09
2018-04-16T05:50:28.566Z,100932.41
2018-04-16T05:52:56.753Z,100940.49
2018-04-16T05:55:24.895Z,100932.23
2018-04-16T05:57:53.033Z,100937.88
2018-04-16T06:00:21.247Z,100942.23
2018-04-16T06:02:49.384Z,100938.25
2018-04-16T06:05:17.543Z,100946.42
2018-04-16T06:07:45.710Z,100949.30
2018-04-16T06:10:13.840Z,100953.78
2018-04-16T06:12:42.126Z,100958.34
2018-04-16T06:15:10.266Z,100955.52
2018-04-16T06:17:38.388Z,100963.19
2018-04-16T06:20:06.758Z,100963.14
2018-04-16T06:22:34.874Z,100966.41
2018-04-16T06:25:03.023Z,100970.73
2018-04-16T06:27:31.247Z,100976.11
2018-04-16T06:29:59.363Z,100972.18
2018-04-16T06:32:27.504Z,100971.41
2018-04-16T06:34:55.647Z,100974.40
2018-04-16T06:37:23.885Z,100979.47
2018-04-16T06:39:52.040Z,100983.97
2018-04-16T06:42:20.253Z,100984.64
2018-04-16T06:44:48.343Z,100982.47
2018-04-16T06:47:16.489Z,100981.95
2018-04-16T06:49:44.865Z,100986.80
2018-04-16T06:52:12.983Z,100989.64
2018-04-16T06:54:41.119Z,100992.39
2018-04-16T06:57:09.293Z,100996.42
2018-04-16T06:59:37.421Z,100990.05
2018-04-16T07:02:05.561Z,100997.69
2018-04-16T07:04:33.715Z,101005.73
2018-04-16T07:07:01.838Z,101001.94
2018-04-16T07:09:30.010Z,101001.66
2018-04-16T07:11:58.176Z,101001.50
2018-04-16T07:14:26.314Z,100999.50
2018-04-16T07:16:54.476Z,101006.27
2018-04-16T07:19:22.628Z,101011.10
2018-04-16T07:21:50.748Z,101013.19
2018-04-16T07:24:18.894Z,101022.89
2018-04-16T07:26:47.034Z,101023.84
2018-04-16T07:29:15.187Z,101022.44
2018-04-16T07:31:43.317Z,101022.56
2018-04-16T07:34:11.461Z,101027.91
2018-04-16T07:36:39.575Z,101025.25
2018-04-16T07:39:07.713Z,101028.80
2018-04-16T07:41:36.313Z,101026.27
2018-04-16T07:44:04.428Z,101031.64
2018-04-16T07:46:32.566Z,101043.11
2018-04-16T07:49:00.717Z,101041.09
2018-04-16T07:51:28.887Z,101039.34
2018-04-16T07:53:56.988Z,101048.56
2018-04-16T07:56:25.120Z,101044.31
2018-04-16T07:58:53.356Z,101053.09
2018-04-16T08:01:21.503Z,101057.23
2018-04-16T08:03:49.605Z,101058.03
2018-04-16T08:06:17.716Z,101062.22
2018-04-16T08:08:45.849Z,101065.40
2018-04-16T08:11:14.009Z,101063.41
2018-04-16T08:13:42.155Z,101068.37
2018-04-16T08:16:10.288Z,101072.45
2018-04-16T08:18:38.428Z,101077.23
2018-04-16T08:21:06.576Z,101076.66
2018-04-16T08:23:34.719Z,101081.25
2018-04-16T08:26:02.861Z,101078.87
2018-04-16T08:28:30.979Z,101082.61
2018-04-16T08:30:59.114Z,101084.73
2018-04-16T08:33:27.474Z,101084.27
2018-04-16T08:35:55.587Z,101088.34
2018-04-16T08:38:23.717Z,101092.09
2018-04-16T08:40:51.878Z,101092.89
2018-04-16T08:43:20.022Z,101088.23
2018-04-16T08:45:48.158Z,101097.02
2018-04-16T08:48:16.305Z,101100.38
2018-04-16T08:50:44.463Z,101099.41
2018-04-16T08:53:12.582Z,101098.23
2018-04-16T08:55:40.713Z,101100.55
2018-04-16T08:58:08.855Z,101098.33
2018-04-16T09:00:37.009Z,101094.95
2018-04-16T09:03:05.105Z,101106.86
2018-04-16T09:05:33.239Z,101098.52
2018-04-16T09:08:01.375Z,101103.79
2018-04-16T09:10:29.518Z,101114.94
2018-04-16T09:12:57.667Z,101108.55
2018-04-16T09:15:26.617Z,101110.70
2018-04-16T09:17:54.760Z,101113.06
2018-04-16T09:20:22.905Z,101116.02
2018-04-16T09:22:51.061Z,101118.32
2018-04-16T09:25:19.242Z,101118.75
2018-04-16T09:27:47.359Z,101127.86
2018-04-16T09:30:15.494Z,101132.78
2018-04-16T09:32:43.650Z,101132.76
2018-04-16T09:35:11.787Z,101130.66
2018-04-16T09:37:39.935Z,101133.66
2018-04-16T09:40:08.100Z,101135.83
2018-04-16T09:42:36.212Z,101138.40
2018-04-16T09:45:04.333Z,101135.58
2018-04-16T09:47:32.501Z,101138.14
2018-04-16T09:50:00.627Z,101141.80
2018-04-16T09:52:28.759Z,101139.08
2018-04-16T09:54:57.031Z,101147.14
2018-04-16T09:57:25.159Z,101150.17
2018-04-16T09:59:53.294Z,101148.20
2018-04-16T10:02:25.412Z,101153.89
2018-04-16T10:04:53.550Z,101140.91
2018-04-16T10:07:21.698Z,101141.30
2018-04-16T10:09:50.003Z,101140.02
2018-04-16T10:12:18.120Z,101149.83
2018-04-16T10:14:46.235Z,101140.58
2018-04-16T10:17:14.401Z,101143.88
2018-04-16T10:19:42.540Z,101148.45
2018-04-16T10:22:10.662Z,101146.53
2018-04-16T10:24:38.814Z,101149.52
2018-04-16T10:27:06.936Z,101151.73
2018-04-16T10:29:35.054Z,101148.39
2018-04-16T10:32:03.199Z,101156.88
2018-04-16T10:34:31.325Z,101146.42
2018-04-16T10:36:59.551Z,101155.24
2018-04-16T10:39:27.690Z,101148.67
2018-04-16T10:41:55.796Z,101155.53
2018-04-16T10:44:23.929Z,101158.02
2018-04-16T10:46:52.073Z,101159.31
2018-04-16T10:49:20.220Z,101155.98
2018-04-16T10:51:48.379Z,101168.15
2018-04-16T10:54:16.535Z,101159.27
2018-04-16T10:56:44.720Z,101164.22
2018-04-16T10:59:12.862Z,101160.66
2018-04-16T11:01:40.993Z,101162.34
2018-04-16T11:04:09.123Z,101165.25
2018-04-16T11:06:37.239Z,101168.86
2018-04-16T11:09:06.099Z,101157.02
2018-04-16T11:11:34.258Z,101162.28
2018-04-16T11:14:02.387Z,101160.36
2018-04-16T11:16:30.523Z,101166.83
2018-04-16T11:18:58.645Z,101163.27
2018-04-16T11:21:26.767Z,101164.80
2018-04-16T11:23:54.914Z,101161.83
2018-04-16T11:26:23.099Z,101166.48
2018-04-16T11:28:51.207Z,101172.16
2018-04-16T11:31:19.363Z,101168.13
2018-04-16T11:33:47.476Z,101168.63
2018-04-16T11:36:15.583Z,101172.98
2018-04-16T11:38:43.740Z,101172.83
2018-04-16T11:41:11.857Z,101179.53
2018-04-16T11:43:39.981Z,101184.43
2018-04-16T11:46:08.124Z,101183.89
2018-04-16T11:48:36.247Z,101182.42
2018-04-16T11:51:04.363Z,101184.41
2018-04-16T11:53:32.507Z,101185.02
2018-04-16T11:56:00.620Z,101185.34
2018-04-16T11:58:28.836Z,101186.28
2018-04-16T12:00:56.984Z,101190.08
2018-04-16T12:03:25.090Z,101182.59
2018-04-16T12:05:53.238Z,101183.70
2018-04-16T12:08:21.377Z,101184.90
2018-04-16T12:10:49.523Z,101186.98
2018-04-16T12:13:17.654Z,101182.20
2018-04-16T12:15:45.800Z,101188.06
2018-04-16T12:18:13.937Z,101180.70
2018-04-16T12:20:42.066Z,101190.45
2018-04-16T12:23:10.205Z,101195.45
2018-04-16T12:25:38.345Z,101192.38
2018-04-16T12:28:06.503Z,101200.39
2018-04-16T12:30:34.635Z,101193.59
2018-04-16T12:33:02.787Z,101190.66
2018-04-16T12:35:30.919Z,101193.88
2018-04-16T12:37:59.057Z,101188.77
2018-04-16T12:40:27.185Z,101192.14
2018-04-16T12:42:55.304Z,101184.11
2018-04-16T12:45:23.439Z,101191.91
2018-04-16T12:47:51.566Z,101194.98
2018-04-16T12:50:19.690Z,101204.22
2018-04-16T12:52:47.852Z,101207.91
2018-04-16T12:55:15.966Z,101206.59
2018-04-16T12:57:44.104Z,101204.00
2018-04-16T13:00:12.270Z,101202.20
2018-04-16T13:02:40.343Z,101207.33
2018-04-16T13:05:08.447Z,101215.00
2018-04-16T13:07:36.586Z,101211.00
2018-04-16T13:10:04.717Z,101220.51
2018-04-16T13:12:32.841Z,101217.60
2018-04-16T13:15:01.008Z,101221.41
2018-04-16T13:17:29.148Z,101222.58
2018-04-16T13:19:57.285Z,101225.64
2018-04-16T13:22:25.638Z,101221.55
2018-04-16T13:24:53.775Z,101221.34
2018-04-16T13:27:22.229Z,101224.55
2018-04-16T13:29:50.344Z,101231.84
2018-04-16T13:32:18.473Z,101227.59
2018-04-16T13:34:46.607Z,101226.86
2018-04-16T13:37:14.773Z,101223.93
2018-04-16T13:39:43.547Z,101222.12
2018-04-16T13:42:12.668Z,101219.55
2018-04-16T13:44:40.824Z,101224.02
2018-04-16T13:47:08.941Z,101229.02
2018-04-16T13:49:37.062Z,101230.69
2018-04-16T13:52:05.218Z,101228.02
2018-04-16T13:54:33.334Z,101231.17
2018-04-16T13:57:01.473Z,101229.89
2018-04-16T13:59:29.605Z,101222.78
2018-04-16T14:01:57.750Z,101223.23
2018-04-16T14:04:25.872Z,101226.64
2018-04-16T14:06:54.046Z,101228.13
2018-04-16T14:09:22.155Z,101234.81
2018-04-16T14:11:50.296Z,101228.91
2018-04-16T14:14:18.434Z,101239.88
2018-04-16T14:16:46.552Z,101244.98
2018-04-16T14:19:14.703Z,101249.17
2018-04-16T14:21:42.842Z,101250.20
2018-04-16T14:24:10.969Z,101252.55
2018-04-16T14:26:39.098Z,101245.70
2018-04-16T14:29:07.248Z,101251.16
2018-04-16T14:31:35.358Z,101254.17
2018-04-16T14:34:03.496Z,101255.49
2018-04-16T14:36:31.623Z,101257.56
2018-04-16T14:38:59.765Z,101263.46
2018-04-16T14:41:27.876Z,101251.48
2018-04-16T14:43:56.046Z,101251.71
2018-04-16T14:46:24.204Z,101251.24
2018-04-16T14:48:52.331Z,101253.08
2018-04-16T14:51:20.447Z,101253.33
2018-04-16T14:53:48.583Z,101256.00
2018-04-16T14:56:16.691Z,101258.42
2018-04-16T14:58:44.840Z,101266.74
2018-04-16T15:01:12.969Z,101264.09
2018-04-16T15:03:41.103Z,101263.45
2018-04-16T15:06:09.240Z,101255.94
2018-04-16T15:08:37.380Z,101251.23
2018-04-16T15:11:05.769Z,101256.27
2018-04-16T15:13:33.908Z,101253.09
2018-04-16T15:16:02.013Z,101257.42
2018-04-16T15:18:30.187Z,101255.69
2018-04-16T15:20:58.333Z,101259.04
2018-04-16T15:23:26.458Z,101264.66
2018-04-16T15:25:54.662Z,101264.87
2018-04-16T15:28:22.778Z,101266.89
2018-04-16T15:30:50.921Z,101258.83
2018-04-16T15:33:19.066Z,101262.77
2018-04-16T15:35:47.215Z,101261.51
2018-04-16T15:38:15.340Z,101271.20
2018-04-16T15:40:43.460Z,101265.50
2018-04-16T15:43:11.599Z,101259.36
2018-04-16T15:45:39.748Z,101264.81
2018-04-16T15:48:07.855Z,101259.39
2018-04-16T15:50:35.982Z,101262.12
2018-04-16T15:53:04.118Z,101269.08
2018-04-16T15:55:32.252Z,101270.80
2018-04-16T15:58:00.390Z,101271.06
2018-04-16T16:00:28.495Z,101265.77
2018-04-16T16:02:56.619Z,101271.67
2018-04-16T16:05:24.753Z,101278.63
2018-04-16T16:07:52.869Z,101282.19
2018-04-16T16:10:20.988Z,101281.88
2018-04-16T16:12:49.130Z,101282.75
2018-04-16T16:15:17.253Z,101282.81
2018-04-16T16:17:45.367Z,101274.18
2018-04-16T16:20:13.749Z,101281.34
2018-04-16T16:22:41.858Z,101281.77
2018-04-16T16:25:09.991Z,101284.61
2018-04-16T16:27:38.134Z,101287.58
2018-04-16T16:30:06.258Z,101290.48
2018-04-16T16:32:34.402Z,101283.08
2018-04-16T16:35:02.550Z,101298.16
2018-04-16T16:37:30.686Z,101292.81
2018-04-16T16:39:58.838Z,101296.36
2018-04-16T16:42:26.968Z,101298.41
2018-04-16T16:44:55.350Z,101301.25
2018-04-16T16:47:23.491Z,101308.42
2018-04-16T16:49:51.699Z,101304.67
2018-04-16T16:52:19.813Z,101306.94
2018-04-16T16:54:47.959Z,101306.98
2018-04-16T16:57:16.326Z,101310.73
2018-04-16T16:59:44.455Z,101316.38
2018-04-16T17:02:13.419Z,101312.32
2018-04-16T17:04:42.188Z,101320.09
2018-04-16T17:07:10.342Z,101320.42
2018-04-16T17:09:38.464Z,101322.76
2018-04-16T17:12:07.323Z,101329.84
2018-04-16T17:14:35.914Z,101331.31
2018-04-16T17:17:05.334Z,101340.12
2018-04-16T17:19:34.526Z,101343.16
2018-04-16T17:22:05.463Z,101348.55
2018-04-16T17:24:33.691Z,101350.91
2018-04-16T17:27:01.834Z,101352.42
2018-04-16T17:29:29.979Z,101357.38
2018-04-16T17:31:58.092Z,101366.41
2018-04-16T17:34:26.239Z,101365.09
2018-04-16T17:36:54.468Z,101355.84
2018-04-16T17:39:22.623Z,101365.19
2018-04-16T17:41:50.785Z,101363.02
2018-04-16T17:44:18.902Z,101370.53
2018-04-16T17:46:47.048Z,101369.43
2018-04-16T17:49:15.209Z,101374.88
2018-04-16T17:51:43.339Z,101379.30
2018-04-16T17:54:11.474Z,101384.73
2018-04-16T17:56:39.623Z,101391.08
2018-04-16T17:59:07.748Z,101398.28
2018-04-16T18:01:36.260Z,101390.98
2018-04-16T18:04:04.393Z,101398.22
2018-04-16T18:06:36.062Z,101402.87
2018-04-16T18:09:04.209Z,101406.16
2018-04-16T18:11:32.345Z,101402.45
2018-04-16T18:14:00.499Z,101408.75
2018-04-16T18:16:28.677Z,101410.05
2018-04-16T18:18:56.785Z,101423.81
2018-04-16T18:21:24.900Z,101414.20
2018-04-16T18:23:53.068Z,101411.09
2018-04-16T18:26:21.212Z,101425.70
2018-04-16T18:28:49.355Z,101429.43
2018-04-16T18:31:17.500Z,101439.83
2018-04-16T18:33:45.654Z,101444.20
2018-04-16T18:36:13.801Z,101445.83
2018-04-16T18:38:41.928Z,101443.63
2018-04-16T18:41:10.061Z,101453.64
2018-04-16T18:43:38.235Z,101459.27
2018-04-16T18:46:06.409Z,101464.88
2018-04-16T18:48:34.569Z,101469.24
2018-04-16T18:51:02.693Z,101475.47
2018-04-16T18:53:30.850Z,101479.65
2018-04-16T18:55:58.990Z,101485.95
2018-04-16T18:58:27.141Z,101487.14
2018-04-16T19:00:58.373Z,101486.85
2018-04-16T19:03:26.535Z,101498.38
2018-04-16T19:05:54.661Z,101504.59
2018-04-16T19:08:22.806Z,101515.64
2018-04-16T19:10:50.971Z,101512.92
2018-04-16T19:13:19.081Z,101523.41
2018-04-16T19:15:47.460Z,101529.73
2018-04-16T19:18:15.544Z,101529.59
2018-04-16T19:20:49.263Z,101535.83
2018-04-16T19:23:17.392Z,101538.58
2018-04-16T19:25:45.502Z,101546.69
2018-04-16T19:28:16.629Z,101550.61
2018-04-16T19:30:44.777Z,101559.60
2018-04-16T19:33:18.535Z,101567.59
2018-04-16T19:35:46.694Z,101562.85
2018-04-16T19:38:14.827Z,101578.44
2018-04-16T19:40:42.943Z,101581.03
2018-04-16T19:43:11.106Z,101580.13
2018-04-16T19:45:39.211Z,101583.23
2018-04-16T19:48:07.340Z,101589.33
2018-04-16T19:50:35.536Z,101587.74
2018-04-16T19:53:03.653Z,101598.89
2018-04-16T19:55:37.370Z,101602.84
2018-04-16T19:58:11.173Z,101600.83
2018-04-16T20:00:39.317Z,101605.54
2018-04-16T20:03:13.151Z,101610.67
2018-04-16T20:05:41.276Z,101615.86
2018-04-16T20:08:09.385Z,101620.48
2018-04-16T20:10:37.525Z,101628.75
2018-04-16T20:13:05.674Z,101624.92
2018-04-16T20:15:33.803Z,101624.80
2018-04-16T20:18:01.910Z,101628.81
2018-04-16T20:20:30.048Z,101633.22
2018-04-16T20:22:58.174Z,101632.46
2018-04-16T20:25:26.301Z,101632.61
2018-04-16T20:27:54.641Z,101633.63
2018-04-16T20:30:22.781Z,101638.81
2018-04-16T20:32:50.906Z,101634.80
2018-04-16T20:35:19.076Z,101643.14
2018-04-16T20:37:47.194Z,101637.84
2018-04-16T20:40:15.318Z,101643.92
2018-04-16T20:42:43.478Z,101642.31
2018-04-16T20:45:11.665Z,101647.61
2018-04-16T20:47:39.808Z,101646.75
2018-04-16T20:50:08.052Z,101655.73
2018-04-16T20:52:36.230Z,101658.70
2018-04-16T20:55:04.355Z,101657.89
2018-04-16T20:57:32.512Z,101664.37
2018-04-16T21:00:00.630Z,101664.76
2018-04-16T21:02:28.739Z,101662.11
2018-04-16T21:04:56.913Z,101661.48
2018-04-16T21:07:25.009Z,101665.55
2018-04-16T21:09:53.144Z,101674.35
2018-04-16T21:12:23.300Z,101674.88
2018-04-16T21:14:51.434Z,101673.02
2018-04-16T21:17:19.538Z,101676.41
2018-04-16T21:19:47.716Z,101676.55
2018-04-16T21:22:15.852Z,101670.08
2018-04-16T21:24:43.991Z,101676.94
2018-04-16T21:27:12.143Z,101676.07
2018-04-16T21:29:40.257Z,101674.59
2018-04-16T21:32:08.401Z,101678.85
2018-04-16T21:34:36.536Z,101682.66
2018-04-16T21:37:04.655Z,101692.41
2018-04-16T21:39:32.779Z,101687.34
2018-04-16T21:42:00.915Z,101694.81
2018-04-16T21:44:29.075Z,101694.51
2018-04-16T21:46:57.186Z,101693.73
2018-04-16T21:49:25.329Z,101699.97
2018-04-16T21:51:53.477Z,101703.92
2018-04-16T21:54:21.593Z,101706.05
2018-04-16T21:56:49.790Z,101704.80
2018-04-16T21:59:17.875Z,101708.91
2018-04-16T22:01:45.993Z,101710.00
2018-04-16T22:04:14.302Z,101715.14
2018-04-16T22:06:45.402Z,101713.33
2018-04-16T22:09:13.518Z,101715.34
2018-04-16T22:11:41.658Z,101719.52
2018-04-16T22:14:09.795Z,101721.87
2018-04-16T22:16:37.915Z,101726.82
2018-04-16T22:19:06.084Z,101730.34
2018-04-16T22:21:34.228Z,101738.80
2018-04-16T22:24:02.343Z,101738.63
2018-04-16T22:26:30.495Z,101743.90
2018-04-16T22:28:58.621Z,101743.56
2018-04-16T22:31:26.751Z,101742.77
2018-04-16T22:33:54.912Z,101750.23
2018-04-16T22:36:23.013Z,101755.75
2018-04-16T22:38:54.123Z,101760.52
2018-04-16T22:41:22.427Z,101754.80
2018-04-16T22:43:50.557Z,101757.16
2018-04-16T22:46:18.676Z,101758.52
2018-04-16T22:48:49.983Z,101763.54
2018-04-16T22:51:18.117Z,101766.22
2018-04-16T22:53:46.224Z,101771.86
2018-04-16T22:56:14.347Z,101770.98
2018-04-16T22:58:42.497Z,101767.26
2018-04-16T23:01:10.745Z,101777.60
2018-04-16T23:03:38.869Z,101775.70
2018-04-16T23:06:06.977Z,101779.36
2018-04-16T23:08:35.109Z,101783.25
2018-04-16T23:11:03.271Z,101779.23
2018-04-16T23:13:31.403Z,101778.77
2018-04-16T23:15:59.531Z,101778.81
2018-04-16T23:18:27.677Z,101786.20
2018-04-16T23:20:55.837Z,101790.02
2018-04-16T23:23:23.939Z,101787.53
2018-04-16T23:25:52.317Z,101784.00
2018-04-16T23:28:20.457Z,101792.16
2018-04-16T23:30:48.562Z,101793.44
2018-04-16T23:33:16.720Z,101794.68
2018-04-16T23:35:44.823Z,101793.13
2018-04-16T23:38:12.941Z,101800.63
2018-04-16T23:40:41.083Z,101792.13
2018-04-16T23:43:09.216Z,101799.63
2018-04-16T23:45:37.364Z,101798.14
2018-04-16T23:48:05.705Z,101800.57
2018-04-16T23:50:33.885Z,101807.14
2018-04-16T23:53:01.952Z,101807.14
2018-04-16T23:55:30.111Z,101801.88
2018-04-16T23:57:58.256Z,101804.36
